ADDS METAR Data INFO
IDs: Format: Raw Decoded Include TAF

Data at: 0103 UTC 24 Jun 2018

PFSH 240056Z AUTO 25007KT 10SM CLR 13/03 A3014 RMK AO2 SLP205 T01280028 PWINO $
PFSH 232356Z AUTO 25008KT 9SM BKN060 13/05 A3014 RMK AO2 SLP206 T01280050 10133 20122 57001 PWINO $
PFSH 232256Z AUTO 25007KT 9SM SCT060 13/06 A3014 RMK AO2 SLP206 T01280056 PWINO $
PFSH 232156Z AUTO 25008KT 10SM CLR 13/04 A3014 RMK AO2 SLP206 T01280044 PWINO $
PFSH 232056Z AUTO 25009KT 9SM OVC065 13/07 A3014 RMK AO2 SLP207 T01280067 51006 PWINO $
PFSH 231956Z AUTO 24007KT 10SM OVC060 12/07 A3014 RMK AO2 SLP206 T01220072 PWINO $
PFSH 231856Z AUTO 23006KT 10SM FEW021 12/06 A3013 RMK AO2 SLP203 T01220056 PWINO $
PFSH 231756Z AUTO 25005KT 10SM FEW060 12/07 A3012 RMK AO2 SLP200 60004 T01220072 10122 20067 51005 PWINO $
PFSH 231656Z AUTO 26006KT 10SM SCT060 12/08 A3012 RMK AO2 SLP198 P0001 T01220078 PWINO $
PFSH 231556Z AUTO 22006KT 10SM FEW042 OVC055 12/08 A3012 RMK AO2 SLP198 T01170083 PWINO $
PFSH 231456Z AUTO 22009KT 10SM BKN042 11/08 A3011 RMK AO2 SLP195 60003 T01110078 53005 PWINO $
PFSH 231356Z AUTO 23008KT 10SM FEW049 SCT060 BKN075 11/07 A3010 RMK AO2 SLP192 P0003 T01110067 PWINO $
PFSH 231256Z AUTO 13006KT 9SM FEW019 BKN047 OVC055 08/06 A3010 RMK AO2 SLP193 T00780061 PWINO $
PFSH 231156Z AUTO 12004KT 10SM SCT065 07/06 A3009 RMK AO2 SLP190 T00670061 10128 20067 53010 PWINO $
PFSH 231056Z AUTO 13004KT 10SM SCT042 BKN065 08/07 A3008 RMK AO2 SLP187 T00830067 PWINO $
PFSH 230956Z AUTO 21005KT 10SM CLR 12/07 A3007 RMK AO2 SLP182 T01170072 PWINO $
PFSH 230856Z AUTO 21004KT 10SM CLR 12/07 A3006 RMK AO2 SLP180 T01170072 401390111 53012 PWINO $
PFSH 230756Z AUTO 21004KT 10SM CLR 12/07 A3005 RMK AO2 SLP174 T01220067 PWINO $
PFSH 230656Z AUTO 22004KT 10SM CLR 12/07 A3004 RMK AO2 SLP172 T01220067 PWINO $
PFSH 230556Z AUTO 25004KT 9SM CLR 13/06 A3003 RMK AO2 SLP168 T01280061 10133 20122 53009 PWINO $
PFSH 230456Z AUTO 24004KT 9SM CLR 13/06 A3002 RMK AO2 SLP166 T01280061 PWINO $
PFSH 230256Z AUTO 29005KT 10SM CLR 13/06 A3000 RMK AO2 SLP160 T01280056 50005 PWINO $
PFSH 230156Z AUTO 27003KT 9SM CLR 13/07 A3001 RMK AO2 SLP161 T01280067 PWINO $
PFSH 230056Z AUTO 27005KT 10SM CLR 12/07 A2999 RMK AO2 SLP157 T01220067 PWINO $
PFSH 222356Z AUTO 26007KT 9SM CLR 13/07 A2999 RMK AO2 SLP154 T01280072 10128 20111 51005 PWINO $
PFSH 222256Z AUTO 25008KT 9SM CLR 12/07 A2998 RMK AO2 SLP153 T01220067 PWINO $
PFSH 222156Z AUTO 24010KT 8SM CLR 12/07 A2998 RMK AO2 SLP151 T01220072 PWINO $
PFSH 222056Z AUTO 23010KT 9SM FEW013 SCT048 12/08 A2997 RMK AO2 SLP149 T01220083 53016 PWINO $
PFSH 221956Z AUTO 22012KT 9SM FEW016 SCT033 OVC048 12/08 A2996 RMK AO2 SLP144 T01220083 PWINO $
PFSH 221945Z AUTO 21012KT 9SM SCT016 BKN033 OVC044 12/08 A2995 RMK AO2 PWINO $
PFSH 221856Z AUTO 21012KT 9SM OVC025 12/08 A2994 RMK AO2 SLP138 T01170083 PWINO $
PFSH 221756Z AUTO 22013KT 9SM OVC017 11/09 A2992 RMK AO2 SLP133 T01110089 10122 20111 53022 PWINO $
PFSH 221749Z AUTO 22011KT 9SM OVC015 11/09 A2992 RMK AO2 PWINO $
PFSH 221656Z AUTO 21011KT 9SM OVC011 12/09 A2990 RMK AO2 SLP124 T01170094 PWINO $
PFSH 221556Z AUTO 21013KT 10SM OVC011 12/10 A2988 RMK AO2 SLP118 T01170100 PWINO $
PFSH 221540Z AUTO 20014KT 10SM BKN013 BKN021 BKN027 12/10 A2987 RMK AO2 PWINO $
PFSH 221519Z AUTO 19010KT 10SM BKN027 12/10 A2987 RMK AO2 PWINO $
PFSH 221456Z AUTO 19013KT 10SM CLR 12/09 A2986 RMK AO2 SLP110 T01170094 51012 PWINO $
PFSH 221356Z AUTO 19011KT 10SM CLR 12/09 A2985 RMK AO2 SLP109 T01170094 PWINO $